sensor_id;sensor_type;location;lat;lon;timestamp;temperature;humidity
8707;DHT22;4390;49.302;9.306;2022-11-20T00:01:23;3.50;98.30
8707;DHT22;4390;49.302;9.306;2022-11-20T00:03:53;3.60;98.30
8707;DHT22;4390;49.302;9.306;2022-11-20T00:06:21;3.60;98.30
8707;DHT22;4390;49.302;9.306;2022-11-20T00:08:49;3.60;98.30
8707;DHT22;4390;49.302;9.306;2022-11-20T00:11:21;3.70;98.30
8707;DHT22;4390;49.302;9.306;2022-11-20T00:13:51;3.70;98.30
8707;DHT22;4390;49.302;9.306;2022-11-20T00:16:25;3.70;98.30
8707;DHT22;4390;49.302;9.306;2022-11-20T00:18:52;3.70;98.30
8707;DHT22;4390;49.302;9.306;2022-11-20T00:21:23;3.90;98.30
8707;DHT22;4390;49.302;9.306;2022-11-20T00:23:52;4.00;97.90
8707;DHT22;4390;49.302;9.306;2022-11-20T00:26:23;4.10;97.50
8707;DHT22;4390;49.302;9.306;2022-11-20T00:28:55;3.90;97.70
8707;DHT22;4390;49.302;9.306;2022-11-20T00:31:23;3.60;97.80
8707;DHT22;4390;49.302;9.306;2022-11-20T00:33:50;3.80;98.30
8707;DHT22;4390;49.302;9.306;2022-11-20T00:36:20;3.80;98.30
8707;DHT22;4390;49.302;9.306;2022-11-20T00:38:51;3.80;98.20
8707;DHT22;4390;49.302;9.306;2022-11-20T00:41:19;3.70;98.30
8707;DHT22;4390;49.302;9.306;2022-11-20T00:43:47;3.80;98.30
8707;DHT22;4390;49.302;9.306;2022-11-20T00:46:17;3.80;98.10
8707;DHT22;4390;49.302;9.306;2022-11-20T00:48:44;3.60;98.30
8707;DHT22;4390;49.302;9.306;2022-11-20T00:51:14;3.30;98.30
8707;DHT22;4390;49.302;9.306;2022-11-20T00:53:42;3.40;98.30
8707;DHT22;4390;49.302;9.306;2022-11-20T00:56:14;3.50;98.30
8707;DHT22;4390;49.302;9.306;2022-11-20T00:58:43;3.70;98.30
8707;DHT22;4390;49.302;9.306;2022-11-20T01:01:18;3.70;98.30
8707;DHT22;4390;49.302;9.306;2022-11-20T01:03:49;3.80;98.30
8707;DHT22;4390;49.302;9.306;2022-11-20T01:06:24;3.80;98.30
8707;DHT22;4390;49.302;9.306;2022-11-20T01:08:57;3.90;98.30
8707;DHT22;4390;49.302;9.306;2022-11-20T01:11:27;3.80;98.30
8707;DHT22;4390;49.302;9.306;2022-11-20T01:13:56;3.90;98.30
8707;DHT22;4390;49.302;9.306;2022-11-20T01:16:27;3.90;98.00
8707;DHT22;4390;49.302;9.306;2022-11-20T01:18:58;3.90;98.10
8707;DHT22;4390;49.302;9.306;2022-11-20T01:21:27;4.00;97.90
8707;DHT22;4390;49.302;9.306;2022-11-20T01:23:55;4.00;97.70
8707;DHT22;4390;49.302;9.306;2022-11-20T01:26:26;3.90;97.90
8707;DHT22;4390;49.302;9.306;2022-11-20T01:28:54;3.90;97.90
8707;DHT22;4390;49.302;9.306;2022-11-20T01:33:59;4.00;97.60
8707;DHT22;4390;49.302;9.306;2022-11-20T01:36:28;3.80;98.10
8707;DHT22;4390;49.302;9.306;2022-11-20T01:39:00;3.90;98.10
8707;DHT22;4390;49.302;9.306;2022-11-20T01:41:29;3.80;98.30
8707;DHT22;4390;49.302;9.306;2022-11-20T01:44:19;3.80;98.30
8707;DHT22;4390;49.302;9.306;2022-11-20T01:47:00;3.90;98.30
8707;DHT22;4390;49.302;9.306;2022-11-20T01:49:37;3.80;98.10
8707;DHT22;4390;49.302;9.306;2022-11-20T01:52:16;3.60;98.30
8707;DHT22;4390;49.302;9.306;2022-11-20T01:54:50;3.60;98.30
8707;DHT22;4390;49.302;9.306;2022-11-20T01:57:19;3.60;98.30
8707;DHT22;4390;49.302;9.306;2022-11-20T01:59:53;3.50;98.30
8707;DHT22;4390;49.302;9.306;2022-11-20T02:02:22;3.50;98.30
8707;DHT22;4390;49.302;9.306;2022-11-20T02:04:51;3.50;98.30
8707;DHT22;4390;49.302;9.306;2022-11-20T02:07:22;3.60;98.30
8707;DHT22;4390;49.302;9.306;2022-11-20T02:09:51;3.60;98.30
8707;DHT22;4390;49.302;9.306;2022-11-20T02:12:24;3.50;98.30
8707;DHT22;4390;49.302;9.306;2022-11-20T02:15:09;3.70;98.30
8707;DHT22;4390;49.302;9.306;2022-11-20T02:17:36;3.80;98.30
8707;DHT22;4390;49.302;9.306;2022-11-20T02:20:04;3.90;98.30
8707;DHT22;4390;49.302;9.306;2022-11-20T02:22:48;3.80;98.30
8707;DHT22;4390;49.302;9.306;2022-11-20T02:25:18;3.80;98.30
8707;DHT22;4390;49.302;9.306;2022-11-20T02:27:46;3.80;98.30
8707;DHT22;4390;49.302;9.306;2022-11-20T02:30:14;3.80;98.30
8707;DHT22;4390;49.302;9.306;2022-11-20T02:32:41;3.80;98.30
8707;DHT22;4390;49.302;9.306;2022-11-20T02:37:49;4.10;98.30
8707;DHT22;4390;49.302;9.306;2022-11-20T02:40:17;4.00;98.30
8707;DHT22;4390;49.302;9.306;2022-11-20T02:42:44;4.00;98.30
8707;DHT22;4390;49.302;9.306;2022-11-20T02:45:11;4.10;98.30
8707;DHT22;4390;49.302;9.306;2022-11-20T02:47:38;4.10;98.30
8707;DHT22;4390;49.302;9.306;2022-11-20T02:50:06;4.00;98.30
8707;DHT22;4390;49.302;9.306;2022-11-20T02:52:32;4.10;98.30
8707;DHT22;4390;49.302;9.306;2022-11-20T02:54:59;4.20;98.30
8707;DHT22;4390;49.302;9.306;2022-11-20T02:57:28;4.20;98.20
8707;DHT22;4390;49.302;9.306;2022-11-20T02:59:55;4.00;98.30
8707;DHT22;4390;49.302;9.306;2022-11-20T03:02:30;3.90;98.30
8707;DHT22;4390;49.302;9.306;2022-11-20T03:04:57;4.00;98.30
8707;DHT22;4390;49.302;9.306;2022-11-20T03:07:25;4.00;98.30
8707;DHT22;4390;49.302;9.306;2022-11-20T03:09:52;4.00;98.30
8707;DHT22;4390;49.302;9.306;2022-11-20T03:12:20;4.00;98.30
8707;DHT22;4390;49.302;9.306;2022-11-20T03:14:47;4.00;98.30
8707;DHT22;4390;49.302;9.306;2022-11-20T03:17:19;3.90;98.30
8707;DHT22;4390;49.302;9.306;2022-11-20T03:19:46;4.00;98.30
8707;DHT22;4390;49.302;9.306;2022-11-20T03:22:13;4.00;98.30
8707;DHT22;4390;49.302;9.306;2022-11-20T03:24:40;4.10;98.30
8707;DHT22;4390;49.302;9.306;2022-11-20T03:27:07;4.10;98.30
8707;DHT22;4390;49.302;9.306;2022-11-20T03:29:35;4.20;98.30
8707;DHT22;4390;49.302;9.306;2022-11-20T03:32:02;4.30;98.30
8707;DHT22;4390;49.302;9.306;2022-11-20T03:34:29;4.20;98.30
8707;DHT22;4390;49.302;9.306;2022-11-20T03:36:56;4.10;98.30
8707;DHT22;4390;49.302;9.306;2022-11-20T03:39:22;4.10;98.30
8707;DHT22;4390;49.302;9.306;2022-11-20T03:41:50;4.20;98.30
8707;DHT22;4390;49.302;9.306;2022-11-20T03:44:17;4.10;98.30
8707;DHT22;4390;49.302;9.306;2022-11-20T03:46:43;4.00;98.30
8707;DHT22;4390;49.302;9.306;2022-11-20T03:49:10;4.00;98.30
8707;DHT22;4390;49.302;9.306;2022-11-20T03:51:37;4.10;98.30
8707;DHT22;4390;49.302;9.306;2022-11-20T03:54:06;4.20;98.30
8707;DHT22;4390;49.302;9.306;2022-11-20T03:56:35;4.30;98.30
8707;DHT22;4390;49.302;9.306;2022-11-20T03:59:03;4.20;98.30
8707;DHT22;4390;49.302;9.306;2022-11-20T04:01:32;4.30;98.30
8707;DHT22;4390;49.302;9.306;2022-11-20T04:04:00;4.40;98.30
8707;DHT22;4390;49.302;9.306;2022-11-20T04:06:35;4.50;98.30
8707;DHT22;4390;49.302;9.306;2022-11-20T04:09:02;4.40;98.30
8707;DHT22;4390;49.302;9.306;2022-11-20T04:11:32;4.30;98.30
8707;DHT22;4390;49.302;9.306;2022-11-20T04:14:02;4.20;98.30
8707;DHT22;4390;49.302;9.306;2022-11-20T04:16:32;4.30;98.30
8707;DHT22;4390;49.302;9.306;2022-11-20T04:19:01;4.30;98.30
8707;DHT22;4390;49.302;9.306;2022-11-20T04:21:28;4.10;98.30
8707;DHT22;4390;49.302;9.306;2022-11-20T04:23:56;4.20;98.30
8707;DHT22;4390;49.302;9.306;2022-11-20T04:26:26;4.50;98.30
8707;DHT22;4390;49.302;9.306;2022-11-20T04:28:54;4.30;98.30
8707;DHT22;4390;49.302;9.306;2022-11-20T04:31:24;4.20;98.30
8707;DHT22;4390;49.302;9.306;2022-11-20T04:33:51;4.20;98.30
8707;DHT22;4390;49.302;9.306;2022-11-20T04:36:24;4.20;98.30
8707;DHT22;4390;49.302;9.306;2022-11-20T04:38:57;4.20;98.30
8707;DHT22;4390;49.302;9.306;2022-11-20T04:41:29;4.40;98.30
8707;DHT22;4390;49.302;9.306;2022-11-20T04:43:58;4.50;98.30
8707;DHT22;4390;49.302;9.306;2022-11-20T04:46:30;4.50;98.30
8707;DHT22;4390;49.302;9.306;2022-11-20T04:48:57;4.40;98.30
8707;DHT22;4390;49.302;9.306;2022-11-20T04:51:24;4.60;98.30
8707;DHT22;4390;49.302;9.306;2022-11-20T04:53:51;4.70;98.30
8707;DHT22;4390;49.302;9.306;2022-11-20T04:56:18;4.70;98.30
8707;DHT22;4390;49.302;9.306;2022-11-20T04:58:45;4.60;98.30
8707;DHT22;4390;49.302;9.306;2022-11-20T05:01:15;4.50;98.30
8707;DHT22;4390;49.302;9.306;2022-11-20T05:03:43;4.60;98.30
8707;DHT22;4390;49.302;9.306;2022-11-20T05:06:12;4.80;98.30
8707;DHT22;4390;49.302;9.306;2022-11-20T05:08:39;4.80;98.30
8707;DHT22;4390;49.302;9.306;2022-11-20T05:11:11;4.70;98.30
8707;DHT22;4390;49.302;9.306;2022-11-20T05:13:39;4.40;98.30
8707;DHT22;4390;49.302;9.306;2022-11-20T05:16:09;4.30;98.30
8707;DHT22;4390;49.302;9.306;2022-11-20T05:18:37;4.30;98.30
8707;DHT22;4390;49.302;9.306;2022-11-20T05:21:05;4.10;98.30
8707;DHT22;4390;49.302;9.306;2022-11-20T05:23:32;4.10;98.30
8707;DHT22;4390;49.302;9.306;2022-11-20T05:26:00;4.10;98.30
8707;DHT22;4390;49.302;9.306;2022-11-20T05:28:29;4.40;98.30
8707;DHT22;4390;49.302;9.306;2022-11-20T05:31:07;4.50;98.30
8707;DHT22;4390;49.302;9.306;2022-11-20T05:33:39;4.40;98.30
8707;DHT22;4390;49.302;9.306;2022-11-20T05:36:07;4.30;98.30
8707;DHT22;4390;49.302;9.306;2022-11-20T05:38:34;4.30;98.30
8707;DHT22;4390;49.302;9.306;2022-11-20T05:41:14;4.50;98.30
8707;DHT22;4390;49.302;9.306;2022-11-20T05:43:44;4.60;98.30
8707;DHT22;4390;49.302;9.306;2022-11-20T05:46:14;4.30;98.30
8707;DHT22;4390;49.302;9.306;2022-11-20T05:48:42;4.20;98.30
8707;DHT22;4390;49.302;9.306;2022-11-20T05:51:10;4.50;98.30
8707;DHT22;4390;49.302;9.306;2022-11-20T05:53:37;4.40;98.30
8707;DHT22;4390;49.302;9.306;2022-11-20T05:56:16;4.50;98.30
8707;DHT22;4390;49.302;9.306;2022-11-20T05:58:44;4.40;98.30
8707;DHT22;4390;49.302;9.306;2022-11-20T06:01:18;4.40;98.30
8707;DHT22;4390;49.302;9.306;2022-11-20T06:03:45;4.30;98.30
8707;DHT22;4390;49.302;9.306;2022-11-20T06:06:15;4.40;98.30
8707;DHT22;4390;49.302;9.306;2022-11-20T06:08:43;4.40;98.30
8707;DHT22;4390;49.302;9.306;2022-11-20T06:11:12;4.50;98.30
8707;DHT22;4390;49.302;9.306;2022-11-20T06:13:41;4.70;98.30
8707;DHT22;4390;49.302;9.306;2022-11-20T06:16:10;4.70;98.30
8707;DHT22;4390;49.302;9.306;2022-11-20T06:18:37;4.40;98.30
8707;DHT22;4390;49.302;9.306;2022-11-20T06:21:13;4.40;98.30
8707;DHT22;4390;49.302;9.306;2022-11-20T06:23:41;4.50;98.30
8707;DHT22;4390;49.302;9.306;2022-11-20T06:26:11;4.60;98.30
8707;DHT22;4390;49.302;9.306;2022-11-20T06:28:38;4.80;98.30
8707;DHT22;4390;49.302;9.306;2022-11-20T06:31:06;4.70;98.30
8707;DHT22;4390;49.302;9.306;2022-11-20T06:33:34;4.70;98.30
8707;DHT22;4390;49.302;9.306;2022-11-20T06:36:01;4.60;98.30
8707;DHT22;4390;49.302;9.306;2022-11-20T06:38:36;4.70;98.30
8707;DHT22;4390;49.302;9.306;2022-11-20T06:41:04;4.80;98.30
8707;DHT22;4390;49.302;9.306;2022-11-20T06:43:31;4.80;98.30
8707;DHT22;4390;49.302;9.306;2022-11-20T06:45:58;4.80;98.30
8707;DHT22;4390;49.302;9.306;2022-11-20T06:48:27;4.90;98.30
8707;DHT22;4390;49.302;9.306;2022-11-20T06:50:54;4.90;98.30
8707;DHT22;4390;49.302;9.306;2022-11-20T06:53:22;5.00;98.30
8707;DHT22;4390;49.302;9.306;2022-11-20T06:55:50;5.00;98.30
8707;DHT22;4390;49.302;9.306;2022-11-20T06:58:17;4.90;98.30
8707;DHT22;4390;49.302;9.306;2022-11-20T07:00:44;5.20;98.30
8707;DHT22;4390;49.302;9.306;2022-11-20T07:03:12;5.10;98.30
8707;DHT22;4390;49.302;9.306;2022-11-20T07:05:40;5.20;98.30
8707;DHT22;4390;49.302;9.306;2022-11-20T07:08:07;5.20;98.30
8707;DHT22;4390;49.302;9.306;2022-11-20T07:10:34;5.10;98.30
8707;DHT22;4390;49.302;9.306;2022-11-20T07:13:01;5.20;98.30
8707;DHT22;4390;49.302;9.306;2022-11-20T07:15:28;5.20;98.30
8707;DHT22;4390;49.302;9.306;2022-11-20T07:17:58;5.10;98.30
8707;DHT22;4390;49.302;9.306;2022-11-20T07:20:25;5.20;98.30
8707;DHT22;4390;49.302;9.306;2022-11-20T07:22:56;5.10;98.30
8707;DHT22;4390;49.302;9.306;2022-11-20T07:25:25;5.20;98.30
8707;DHT22;4390;49.302;9.306;2022-11-20T07:27:52;5.10;98.30
8707;DHT22;4390;49.302;9.306;2022-11-20T07:30:19;5.10;98.30
8707;DHT22;4390;49.302;9.306;2022-11-20T07:32:50;5.10;98.30
8707;DHT22;4390;49.302;9.306;2022-11-20T07:35:17;5.30;98.30
8707;DHT22;4390;49.302;9.306;2022-11-20T07:37:44;5.20;98.30
8707;DHT22;4390;49.302;9.306;2022-11-20T07:40:13;5.30;98.30
8707;DHT22;4390;49.302;9.306;2022-11-20T07:42:50;5.50;98.30
8707;DHT22;4390;49.302;9.306;2022-11-20T07:45:18;5.60;98.30
8707;DHT22;4390;49.302;9.306;2022-11-20T07:47:45;5.50;98.30
8707;DHT22;4390;49.302;9.306;2022-11-20T07:50:12;5.40;98.30
8707;DHT22;4390;49.302;9.306;2022-11-20T07:52:40;5.40;98.30
8707;DHT22;4390;49.302;9.306;2022-11-20T07:55:08;5.30;98.30
8707;DHT22;4390;49.302;9.306;2022-11-20T07:57:36;5.50;98.30
8707;DHT22;4390;49.302;9.306;2022-11-20T08:00:07;5.50;98.30
8707;DHT22;4390;49.302;9.306;2022-11-20T08:02:40;5.60;98.30
8707;DHT22;4390;49.302;9.306;2022-11-20T08:05:08;5.60;98.30
8707;DHT22;4390;49.302;9.306;2022-11-20T08:07:40;5.60;98.30
8707;DHT22;4390;49.302;9.306;2022-11-20T08:10:09;5.60;98.30
8707;DHT22;4390;49.302;9.306;2022-11-20T08:12:47;5.70;98.30
8707;DHT22;4390;49.302;9.306;2022-11-20T08:15:32;5.90;98.30
8707;DHT22;4390;49.302;9.306;2022-11-20T08:18:03;6.00;98.30
8707;DHT22;4390;49.302;9.306;2022-11-20T08:20:51;5.80;98.30
8707;DHT22;4390;49.302;9.306;2022-11-20T08:23:18;5.70;98.30
8707;DHT22;4390;49.302;9.306;2022-11-20T08:25:49;5.80;98.30
8707;DHT22;4390;49.302;9.306;2022-11-20T08:28:16;5.90;98.30
8707;DHT22;4390;49.302;9.306;2022-11-20T08:30:48;5.80;98.30
8707;DHT22;4390;49.302;9.306;2022-11-20T08:33:15;5.80;98.30
8707;DHT22;4390;49.302;9.306;2022-11-20T08:35:44;5.60;98.30
8707;DHT22;4390;49.302;9.306;2022-11-20T08:38:11;5.60;98.30
8707;DHT22;4390;49.302;9.306;2022-11-20T08:40:38;5.60;98.30
8707;DHT22;4390;49.302;9.306;2022-11-20T08:43:04;5.60;98.30
8707;DHT22;4390;49.302;9.306;2022-11-20T08:45:31;5.80;98.30
8707;DHT22;4390;49.302;9.306;2022-11-20T08:48:04;5.70;98.30
8707;DHT22;4390;49.302;9.306;2022-11-20T08:50:31;5.60;98.30
8707;DHT22;4390;49.302;9.306;2022-11-20T08:53:03;5.60;98.30
8707;DHT22;4390;49.302;9.306;2022-11-20T08:55:31;5.30;98.30
8707;DHT22;4390;49.302;9.306;2022-11-20T08:57:57;5.30;98.30
8707;DHT22;4390;49.302;9.306;2022-11-20T09:00:24;5.40;98.30
8707;DHT22;4390;49.302;9.306;2022-11-20T09:02:51;5.50;98.30
8707;DHT22;4390;49.302;9.306;2022-11-20T09:05:19;5.70;98.30
8707;DHT22;4390;49.302;9.306;2022-11-20T09:07:45;5.80;98.30
8707;DHT22;4390;49.302;9.306;2022-11-20T09:10:12;5.70;98.30
8707;DHT22;4390;49.302;9.306;2022-11-20T09:12:50;5.60;98.30
8707;DHT22;4390;49.302;9.306;2022-11-20T09:15:18;5.80;98.30
8707;DHT22;4390;49.302;9.306;2022-11-20T09:17:57;5.60;98.30
8707;DHT22;4390;49.302;9.306;2022-11-20T09:20:25;5.70;98.30
8707;DHT22;4390;49.302;9.306;2022-11-20T09:22:52;5.60;98.30
8707;DHT22;4390;49.302;9.306;2022-11-20T09:25:19;5.50;98.30
8707;DHT22;4390;49.302;9.306;2022-11-20T09:27:46;5.60;98.30
8707;DHT22;4390;49.302;9.306;2022-11-20T09:30:14;5.60;98.30
8707;DHT22;4390;49.302;9.306;2022-11-20T09:32:42;5.40;98.30
8707;DHT22;4390;49.302;9.306;2022-11-20T09:35:09;5.50;98.30
8707;DHT22;4390;49.302;9.306;2022-11-20T09:37:37;5.60;98.30
8707;DHT22;4390;49.302;9.306;2022-11-20T09:40:05;5.80;98.30
8707;DHT22;4390;49.302;9.306;2022-11-20T10:01:22;5.90;98.30
8707;DHT22;4390;49.302;9.306;2022-11-20T10:05:53;5.70;98.30
8707;DHT22;4390;49.302;9.306;2022-11-20T10:55:57;6.60;98.30
8707;DHT22;4390;49.302;9.306;2022-11-20T11:11:43;6.60;98.30
8707;DHT22;4390;49.302;9.306;2022-11-20T11:22:54;6.70;98.30
8707;DHT22;4390;49.302;9.306;2022-11-20T11:35:31;6.20;98.30
8707;DHT22;4390;49.302;9.306;2022-11-20T11:39:00;6.30;98.30
8707;DHT22;4390;49.302;9.306;2022-11-20T11:42:26;6.00;98.30
8707;DHT22;4390;49.302;9.306;2022-11-20T11:47:00;6.30;98.30
8707;DHT22;4390;49.302;9.306;2022-11-20T12:12:27;6.40;98.30
8707;DHT22;4390;49.302;9.306;2022-11-20T12:16:00;6.50;98.30
8707;DHT22;4390;49.302;9.306;2022-11-20T12:20:32;6.80;98.30
8707;DHT22;4390;49.302;9.306;2022-11-20T12:25:14;6.50;98.30
8707;DHT22;4390;49.302;9.306;2022-11-20T12:56:40;8.90;97.20
8707;DHT22;4390;49.302;9.306;2022-11-20T12:59:42;8.60;97.80
8707;DHT22;4390;49.302;9.306;2022-11-20T13:05:15;8.20;98.00
8707;DHT22;4390;49.302;9.306;2022-11-20T13:07:45;7.90;98.30
8707;DHT22;4390;49.302;9.306;2022-11-20T13:19:04;8.10;98.30
8707;DHT22;4390;49.302;9.306;2022-11-20T13:22:50;7.60;98.00
8707;DHT22;4390;49.302;9.306;2022-11-20T13:27:18;7.30;98.30
8707;DHT22;4390;49.302;9.306;2022-11-20T13:44:53;7.00;97.30
8707;DHT22;4390;49.302;9.306;2022-11-20T13:47:52;7.00;98.30
8707;DHT22;4390;49.302;9.306;2022-11-20T13:50:27;7.40;98.30
8707;DHT22;4390;49.302;9.306;2022-11-20T13:53:15;7.60;97.40
8707;DHT22;4390;49.302;9.306;2022-11-20T13:56:00;7.80;96.70
8707;DHT22;4390;49.302;9.306;2022-11-20T14:01:46;8.00;95.90
8707;DHT22;4390;49.302;9.306;2022-11-20T14:04:25;8.10;96.00
8707;DHT22;4390;49.302;9.306;2022-11-20T14:06:54;8.00;95.50
8707;DHT22;4390;49.302;9.306;2022-11-20T14:09:29;7.70;96.40
8707;DHT22;4390;49.302;9.306;2022-11-20T14:11:57;7.70;96.90
8707;DHT22;4390;49.302;9.306;2022-11-20T14:14:28;7.80;96.00
8707;DHT22;4390;49.302;9.306;2022-11-20T14:17:08;7.60;95.70
8707;DHT22;4390;49.302;9.306;2022-11-20T14:19:36;7.40;96.70
8707;DHT22;4390;49.302;9.306;2022-11-20T14:22:24;7.50;96.70
8707;DHT22;4390;49.302;9.306;2022-11-20T14:25:18;7.60;96.60
8707;DHT22;4390;49.302;9.306;2022-11-20T14:28:00;7.70;96.20
8707;DHT22;4390;49.302;9.306;2022-11-20T14:30:30;7.70;95.70
8707;DHT22;4390;49.302;9.306;2022-11-20T14:33:03;7.60;95.70
8707;DHT22;4390;49.302;9.306;2022-11-20T14:35:35;7.50;95.50
8707;DHT22;4390;49.302;9.306;2022-11-20T14:38:03;7.30;95.90
8707;DHT22;4390;49.302;9.306;2022-11-20T14:40:35;7.10;96.30
8707;DHT22;4390;49.302;9.306;2022-11-20T14:45:45;7.00;96.90
8707;DHT22;4390;49.302;9.306;2022-11-20T14:48:13;7.20;96.30
8707;DHT22;4390;49.302;9.306;2022-11-20T14:50:40;7.10;96.10
8707;DHT22;4390;49.302;9.306;2022-11-20T14:53:07;7.30;95.50
8707;DHT22;4390;49.302;9.306;2022-11-20T14:55:36;7.20;95.40
8707;DHT22;4390;49.302;9.306;2022-11-20T14:58:06;7.20;95.20
8707;DHT22;4390;49.302;9.306;2022-11-20T15:00:34;7.00;95.60
8707;DHT22;4390;49.302;9.306;2022-11-20T15:03:01;7.20;95.40
8707;DHT22;4390;49.302;9.306;2022-11-20T15:05:46;7.30;94.40
8707;DHT22;4390;49.302;9.306;2022-11-20T15:08:14;7.30;94.30
8707;DHT22;4390;49.302;9.306;2022-11-20T15:10:49;7.20;94.00
8707;DHT22;4390;49.302;9.306;2022-11-20T15:13:37;7.00;93.80
8707;DHT22;4390;49.302;9.306;2022-11-20T15:16:19;7.00;93.60
8707;DHT22;4390;49.302;9.306;2022-11-20T15:18:47;6.80;93.00
8707;DHT22;4390;49.302;9.306;2022-11-20T15:21:19;6.60;93.60
8707;DHT22;4390;49.302;9.306;2022-11-20T15:23:47;6.40;94.20
8707;DHT22;4390;49.302;9.306;2022-11-20T15:26:24;6.40;94.20
8707;DHT22;4390;49.302;9.306;2022-11-20T15:28:52;6.40;94.50
8707;DHT22;4390;49.302;9.306;2022-11-20T15:31:22;6.40;94.30
8707;DHT22;4390;49.302;9.306;2022-11-20T15:33:49;6.50;94.00
8707;DHT22;4390;49.302;9.306;2022-11-20T15:36:16;6.80;93.40
8707;DHT22;4390;49.302;9.306;2022-11-20T15:38:43;6.90;92.90
8707;DHT22;4390;49.302;9.306;2022-11-20T15:41:11;6.70;92.90
8707;DHT22;4390;49.302;9.306;2022-11-20T15:43:38;6.60;94.10
8707;DHT22;4390;49.302;9.306;2022-11-20T15:46:09;6.80;95.10
8707;DHT22;4390;49.302;9.306;2022-11-20T15:48:39;7.10;95.00
8707;DHT22;4390;49.302;9.306;2022-11-20T15:51:35;7.10;94.30
8707;DHT22;4390;49.302;9.306;2022-11-20T15:54:11;7.20;94.00
8707;DHT22;4390;49.302;9.306;2022-11-20T15:56:39;7.20;95.10
8707;DHT22;4390;49.302;9.306;2022-11-20T15:59:06;7.20;95.40
8707;DHT22;4390;49.302;9.306;2022-11-20T16:01:34;7.10;96.00
8707;DHT22;4390;49.302;9.306;2022-11-20T16:04:01;7.10;96.50
8707;DHT22;4390;49.302;9.306;2022-11-20T16:06:28;7.00;96.30
8707;DHT22;4390;49.302;9.306;2022-11-20T16:08:55;7.00;96.70
8707;DHT22;4390;49.302;9.306;2022-11-20T16:11:22;7.00;96.60
8707;DHT22;4390;49.302;9.306;2022-11-20T16:13:49;7.00;97.00
8707;DHT22;4390;49.302;9.306;2022-11-20T16:16:36;6.90;96.70
8707;DHT22;4390;49.302;9.306;2022-11-20T16:19:03;6.90;97.00
8707;DHT22;4390;49.302;9.306;2022-11-20T16:21:30;6.90;97.10
8707;DHT22;4390;49.302;9.306;2022-11-20T16:24:04;6.90;97.10
8707;DHT22;4390;49.302;9.306;2022-11-20T16:26:32;6.80;97.30
8707;DHT22;4390;49.302;9.306;2022-11-20T16:29:00;6.80;97.40
8707;DHT22;4390;49.302;9.306;2022-11-20T16:31:28;6.80;97.60
8707;DHT22;4390;49.302;9.306;2022-11-20T16:33:57;6.80;97.60
8707;DHT22;4390;49.302;9.306;2022-11-20T16:36:26;6.80;97.30
8707;DHT22;4390;49.302;9.306;2022-11-20T16:38:55;6.80;96.50
8707;DHT22;4390;49.302;9.306;2022-11-20T16:41:23;6.70;95.10
8707;DHT22;4390;49.302;9.306;2022-11-20T16:43:57;6.50;95.60
8707;DHT22;4390;49.302;9.306;2022-11-20T16:46:26;6.50;95.70
8707;DHT22;4390;49.302;9.306;2022-11-20T16:48:56;6.50;95.50
8707;DHT22;4390;49.302;9.306;2022-11-20T16:51:24;6.40;94.70
8707;DHT22;4390;49.302;9.306;2022-11-20T16:53:52;6.40;95.20
8707;DHT22;4390;49.302;9.306;2022-11-20T16:56:24;6.50;95.50
8707;DHT22;4390;49.302;9.306;2022-11-20T16:58:54;6.50;95.80
8707;DHT22;4390;49.302;9.306;2022-11-20T17:01:22;6.40;95.10
8707;DHT22;4390;49.302;9.306;2022-11-20T17:04:01;6.40;95.40
8707;DHT22;4390;49.302;9.306;2022-11-20T17:06:30;6.30;95.10
8707;DHT22;4390;49.302;9.306;2022-11-20T17:08:57;6.30;95.00
8707;DHT22;4390;49.302;9.306;2022-11-20T17:11:26;6.10;95.00
8707;DHT22;4390;49.302;9.306;2022-11-20T17:13:54;6.10;95.00
8707;DHT22;4390;49.302;9.306;2022-11-20T17:16:23;6.00;95.20
8707;DHT22;4390;49.302;9.306;2022-11-20T17:18:50;6.10;94.90
8707;DHT22;4390;49.302;9.306;2022-11-20T17:21:17;6.20;94.90
8707;DHT22;4390;49.302;9.306;2022-11-20T17:23:45;6.40;94.80
8707;DHT22;4390;49.302;9.306;2022-11-20T17:26:16;6.40;94.80
8707;DHT22;4390;49.302;9.306;2022-11-20T17:28:45;6.40;95.60
8707;DHT22;4390;49.302;9.306;2022-11-20T17:31:16;6.50;96.40
8707;DHT22;4390;49.302;9.306;2022-11-20T17:33:44;6.50;96.20
8707;DHT22;4390;49.302;9.306;2022-11-20T17:36:14;6.60;96.70
8707;DHT22;4390;49.302;9.306;2022-11-20T17:38:42;6.60;97.30
8707;DHT22;4390;49.302;9.306;2022-11-20T17:41:11;6.50;97.40
8707;DHT22;4390;49.302;9.306;2022-11-20T17:43:38;6.50;97.70
8707;DHT22;4390;49.302;9.306;2022-11-20T17:46:16;6.50;97.60
8707;DHT22;4390;49.302;9.306;2022-11-20T17:48:45;6.60;97.60
8707;DHT22;4390;49.302;9.306;2022-11-20T17:51:14;6.60;97.50
8707;DHT22;4390;49.302;9.306;2022-11-20T17:53:44;6.60;97.50
8707;DHT22;4390;49.302;9.306;2022-11-20T17:56:11;6.60;97.90
8707;DHT22;4390;49.302;9.306;2022-11-20T17:58:57;6.70;97.60
8707;DHT22;4390;49.302;9.306;2022-11-20T18:01:24;6.70;97.50
8707;DHT22;4390;49.302;9.306;2022-11-20T18:03:51;6.70;98.10
8707;DHT22;4390;49.302;9.306;2022-11-20T18:06:20;6.60;97.70
8707;DHT22;4390;49.302;9.306;2022-11-20T18:08:49;6.60;97.90
8707;DHT22;4390;49.302;9.306;2022-11-20T18:11:19;6.70;97.70
8707;DHT22;4390;49.302;9.306;2022-11-20T18:13:49;6.90;96.80
8707;DHT22;4390;49.302;9.306;2022-11-20T18:16:39;6.80;97.10
8707;DHT22;4390;49.302;9.306;2022-11-20T18:19:10;6.90;97.00
8707;DHT22;4390;49.302;9.306;2022-11-20T18:21:37;6.80;96.50
8707;DHT22;4390;49.302;9.306;2022-11-20T18:24:04;6.90;96.60
8707;DHT22;4390;49.302;9.306;2022-11-20T18:26:31;6.90;95.70
8707;DHT22;4390;49.302;9.306;2022-11-20T18:28:58;6.80;97.00
8707;DHT22;4390;49.302;9.306;2022-11-20T18:31:32;6.70;97.50
8707;DHT22;4390;49.302;9.306;2022-11-20T18:33:59;6.70;97.50
8707;DHT22;4390;49.302;9.306;2022-11-20T18:36:29;6.60;96.90
8707;DHT22;4390;49.302;9.306;2022-11-20T18:38:57;6.60;96.60
8707;DHT22;4390;49.302;9.306;2022-11-20T18:41:27;6.60;96.00
8707;DHT22;4390;49.302;9.306;2022-11-20T18:44:17;6.40;96.00
8707;DHT22;4390;49.302;9.306;2022-11-20T18:47:04;6.30;96.60
8707;DHT22;4390;49.302;9.306;2022-11-20T18:49:41;6.20;96.80
8707;DHT22;4390;49.302;9.306;2022-11-20T18:52:08;6.10;97.40
8707;DHT22;4390;49.302;9.306;2022-11-20T18:54:35;6.20;97.80
8707;DHT22;4390;49.302;9.306;2022-11-20T18:57:03;6.40;97.60
8707;DHT22;4390;49.302;9.306;2022-11-20T18:59:30;6.60;97.20
8707;DHT22;4390;49.302;9.306;2022-11-20T19:01:58;6.70;96.50
8707;DHT22;4390;49.302;9.306;2022-11-20T19:04:25;6.80;97.30
8707;DHT22;4390;49.302;9.306;2022-11-20T19:06:52;6.80;97.30
8707;DHT22;4390;49.302;9.306;2022-11-20T19:09:22;6.80;96.40
8707;DHT22;4390;49.302;9.306;2022-11-20T19:11:51;6.70;96.50
8707;DHT22;4390;49.302;9.306;2022-11-20T19:14:17;6.70;97.30
8707;DHT22;4390;49.302;9.306;2022-11-20T19:16:45;6.80;97.40
8707;DHT22;4390;49.302;9.306;2022-11-20T19:19:14;6.70;97.30
8707;DHT22;4390;49.302;9.306;2022-11-20T19:21:41;6.80;96.60
8707;DHT22;4390;49.302;9.306;2022-11-20T19:24:08;6.80;96.60
8707;DHT22;4390;49.302;9.306;2022-11-20T19:26:36;6.50;96.80
8707;DHT22;4390;49.302;9.306;2022-11-20T19:29:05;6.40;97.40
8707;DHT22;4390;49.302;9.306;2022-11-20T19:31:32;5.60;97.70
8707;DHT22;4390;49.302;9.306;2022-11-20T19:34:01;5.10;98.30
8707;DHT22;4390;49.302;9.306;2022-11-20T19:36:36;4.80;98.30
8707;DHT22;4390;49.302;9.306;2022-11-20T19:39:10;4.80;98.30
8707;DHT22;4390;49.302;9.306;2022-11-20T19:41:38;5.10;98.30
8707;DHT22;4390;49.302;9.306;2022-11-20T19:44:11;5.30;98.30
8707;DHT22;4390;49.302;9.306;2022-11-20T19:46:43;5.50;98.30
8707;DHT22;4390;49.302;9.306;2022-11-20T19:49:11;5.40;98.30
8707;DHT22;4390;49.302;9.306;2022-11-20T19:51:44;5.40;98.30
8707;DHT22;4390;49.302;9.306;2022-11-20T19:54:11;5.50;98.30
8707;DHT22;4390;49.302;9.306;2022-11-20T19:56:38;5.50;98.30
8707;DHT22;4390;49.302;9.306;2022-11-20T19:59:05;5.40;98.30